Time;durP1;ratioP1;P1;durP2;ratioP2;P2;SDS_P1;SDS_P2;PMS_P1;PMS_P2;Temp;Humidity;BMP_temperature;BMP_pressure;BME280_temperature;BME280_humidity;BME280_pressure;Samples;Min_cycle;Max_cycle;Signal;HPM_P1;HPM_P2
2023/10/20 00:01:39;;;;;;;25.63;14.02;;;;;;;7.28;100.00;98583.13;5099517;27;20070;-79
2023/10/20 00:04:29;;;;;;;22.27;14.45;;;;;;;7.32;100.00;98591.69;5102328;27;20047;-79
2023/10/20 00:07:15;;;;;;;27.75;14.25;;;;;;;7.39;100.00;98595.81;5100572;27;20047;-77
2023/10/20 00:10:03;;;;;;;30.98;15.48;;;;;;;7.37;100.00;98580.25;5122713;27;20067;-76
2023/10/20 00:12:50;;;;;;;25.90;14.93;;;;;;;7.37;100.00;98579.41;5106440;27;20050;-76
2023/10/20 00:15:38;;;;;;;28.30;15.27;;;;;;;7.39;100.00;98581.06;5105966;27;20500;-77
2023/10/20 00:18:24;;;;;;;25.60;14.07;;;;;;;7.43;100.00;98581.81;5100065;27;20047;-76
2023/10/20 00:21:11;;;;;;;26.08;14.52;;;;;;;7.32;100.00;98565.66;5094406;27;20054;-77
2023/10/20 00:23:59;;;;;;;30.25;16.67;;;;;;;7.38;100.00;98574.16;5115093;27;20101;-75
2023/10/20 00:26:52;;;;;;;25.45;15.25;;;;;;;7.42;100.00;98567.94;5107419;27;20055;-77
2023/10/20 00:29:39;;;;;;;29.13;15.32;;;;;;;7.47;100.00;98566.94;5125424;27;20039;-74
2023/10/20 00:32:25;;;;;;;29.38;14.82;;;;;;;7.45;100.00;98561.81;5121211;27;20149;-79
2023/10/20 00:35:13;;;;;;;33.95;16.50;;;;;;;7.38;100.00;98565.47;5096866;27;20043;-76
2023/10/20 00:38:01;;;;;;;27.92;14.52;;;;;;;7.39;100.00;98561.97;5114282;27;20039;-77
2023/10/20 00:40:49;;;;;;;33.25;17.17;;;;;;;7.39;100.00;98564.56;5104014;27;20054;-77
2023/10/20 00:43:37;;;;;;;28.33;14.63;;;;;;;7.43;100.00;98560.97;5107667;27;20184;-78
2023/10/20 00:46:24;;;;;;;32.33;17.00;;;;;;;7.41;100.00;98558.44;5106566;27;20044;-77
2023/10/20 00:49:12;;;;;;;27.13;15.60;;;;;;;7.48;100.00;98564.31;5113747;27;20200;-78
2023/10/20 00:52:01;;;;;;;28.23;15.23;;;;;;;7.45;100.00;98564.41;5101118;27;20035;-79
2023/10/20 00:54:48;;;;;;;32.53;15.20;;;;;;;7.52;100.00;98571.16;5103781;27;20355;-76
2023/10/20 00:57:37;;;;;;;26.88;14.50;;;;;;;7.45;100.00;98554.00;5101204;27;20055;-79
2023/10/20 01:00:24;;;;;;;29.88;15.50;;;;;;;7.47;100.00;98546.13;5098099;27;20107;-78
2023/10/20 01:03:11;;;;;;;35.45;16.10;;;;;;;7.35;100.00;98557.75;5102639;27;20047;-78
2023/10/20 01:05:58;;;;;;;27.33;15.23;;;;;;;7.41;100.00;98547.19;5115548;27;20123;-79
2023/10/20 01:08:45;;;;;;;30.38;15.40;;;;;;;7.41;100.00;98539.38;5102358;27;20035;-79
2023/10/20 01:11:32;;;;;;;27.88;14.98;;;;;;;7.39;100.00;98534.22;5117173;27;20163;-79
2023/10/20 01:14:19;;;;;;;28.38;16.60;;;;;;;7.35;100.00;98545.59;5120468;27;20054;-77
2023/10/20 01:17:07;;;;;;;27.98;16.05;;;;;;;7.25;100.00;98542.41;5099942;27;20196;-76
2023/10/20 01:19:54;;;;;;;31.23;15.75;;;;;;;7.31;100.00;98549.19;5103168;27;20036;-76
2023/10/20 01:22:41;;;;;;;28.00;15.25;;;;;;;7.31;100.00;98549.19;5098946;27;20256;-78
2023/10/20 01:25:28;;;;;;;28.73;14.77;;;;;;;7.28;100.00;98542.31;5093335;27;20047;-77
2023/10/20 01:28:16;;;;;;;29.48;15.35;;;;;;;7.26;100.00;98535.44;5099809;27;20538;-77
2023/10/20 01:31:03;;;;;;;34.42;17.05;;;;;;;7.22;100.00;98524.31;5099403;27;20051;-78
2023/10/20 01:33:50;;;;;;;30.08;17.25;;;;;;;7.25;100.00;98526.81;5100296;27;20525;-79
2023/10/20 01:36:37;;;;;;;31.55;16.30;;;;;;;7.25;100.00;98520.75;5092941;27;20050;-77
2023/10/20 01:39:25;;;;;;;30.33;15.85;;;;;;;7.22;100.00;98507.81;5095127;27;20051;-77
2023/10/20 01:42:12;;;;;;;29.80;14.88;;;;;;;7.23;100.00;98512.97;5100512;27;20080;-78
2023/10/20 01:44:58;;;;;;;24.92;15.77;;;;;;;7.12;100.00;98505.50;5114516;27;20498;-78
2023/10/20 01:47:45;;;;;;;31.73;14.82;;;;;;;7.21;100.00;98509.59;5118732;27;20106;-77
2023/10/20 01:50:32;;;;;;;28.67;14.88;;;;;;;7.27;100.00;98513.75;5103081;27;20121;-76
2023/10/20 01:53:19;;;;;;;32.63;16.42;;;;;;;7.16;100.00;98502.78;5098777;27;20043;-77
2023/10/20 01:56:09;;;;;;;27.27;15.70;;;;;;;7.10;100.00;98499.50;5105944;27;20051;-76
2023/10/20 01:58:56;;;;;;;29.65;14.32;;;;;;;7.15;100.00;98494.16;5117884;27;20051;-76
2023/10/20 02:01:43;;;;;;;29.38;15.70;;;;;;;7.13;100.00;98490.72;5118275;27;20066;-77
2023/10/20 02:04:30;;;;;;;30.45;15.75;;;;;;;7.01;100.00;98473.72;5119754;27;20675;-76
2023/10/20 02:07:17;;;;;;;25.15;13.98;;;;;;;6.98;100.00;98457.38;5100900;27;20043;-77
2023/10/20 02:10:06;;;;;;;27.73;14.40;;;;;;;6.97;100.00;98455.69;5101499;27;20035;-77
2023/10/20 02:12:53;;;;;;;26.02;13.82;;;;;;;7.02;100.00;98446.81;5119372;27;20054;-77
2023/10/20 02:15:46;;;;;;;20.65;12.13;;;;;;;7.01;100.00;98429.50;5101551;27;20047;-75
2023/10/20 02:18:33;;;;;;;23.33;12.10;;;;;;;7.03;100.00;98424.28;5100085;27;20047;-79
2023/10/20 02:21:19;;;;;;;23.05;13.68;;;;;;;7.04;100.00;98405.16;5094722;27;20047;-79
2023/10/20 02:24:07;;;;;;;20.83;12.40;;;;;;;7.05;100.00;98425.06;5115584;27;20043;-79
2023/10/20 02:26:54;;;;;;;21.15;12.18;;;;;;;7.13;100.00;98433.47;5101724;27;20035;-77
2023/10/20 02:29:44;;;;;;;20.98;12.48;;;;;;;7.18;100.00;98434.19;5116113;27;20785;-78
2023/10/20 02:32:30;;;;;;;20.25;11.38;;;;;;;7.16;100.00;98429.94;5101669;27;20043;-75
2023/10/20 02:35:17;;;;;;;24.02;11.23;;;;;;;7.22;100.00;98447.97;5099390;27;20050;-79
2023/10/20 02:38:04;;;;;;;19.70;10.95;;;;;;;7.12;100.00;98447.41;5095024;27;20133;-79
2023/10/20 02:40:53;;;;;;;21.00;10.63;;;;;;;7.15;100.00;98447.31;5103155;27;20670;-79
2023/10/20 02:43:40;;;;;;;21.52;10.57;;;;;;;7.15;100.00;98442.09;5097172;27;20513;-76
2023/10/20 02:46:26;;;;;;;20.85;11.32;;;;;;;7.24;100.00;98430.56;5110063;27;20131;-78
2023/10/20 02:49:13;;;;;;;18.77;10.57;;;;;;;7.20;100.00;98435.00;5114863;27;20046;-78
2023/10/20 02:52:00;;;;;;;20.83;11.32;;;;;;;7.23;100.00;98426.25;5098757;27;20043;-79
2023/10/20 02:54:47;;;;;;;17.73;11.65;;;;;;;7.22;100.00;98415.00;5100794;27;20111;-80
2023/10/20 02:57:36;;;;;;;18.33;11.32;;;;;;;7.12;100.00;98404.03;5099451;27;20043;-76
2023/10/20 03:00:23;;;;;;;16.10;11.30;;;;;;;7.19;100.00;98399.47;5113119;27;20089;-80
2023/10/20 03:03:14;;;;;;;27.27;12.85;;;;;;;7.17;100.00;98406.50;5102436;27;20143;-79
2023/10/20 03:06:02;;;;;;;21.52;13.18;;;;;;;7.19;100.00;98401.25;5092208;27;20051;-79
2023/10/20 03:08:50;;;;;;;23.98;11.23;;;;;;;7.21;100.00;98386.41;5098432;27;20039;-78
2023/10/20 03:11:37;;;;;;;21.80;11.00;;;;;;;7.08;100.00;98393.78;5117029;27;20162;-78
2023/10/20 03:14:24;;;;;;;24.00;11.82;;;;;;;7.09;100.00;98380.72;5099699;27;20592;-77
2023/10/20 03:17:12;;;;;;;25.98;12.23;;;;;;;7.06;100.00;98382.56;5113026;27;20803;-78
2023/10/20 03:19:59;;;;;;;22.88;11.77;;;;;;;6.97;100.00;98394.09;5096394;27;20047;-78
2023/10/20 03:22:46;;;;;;;21.95;11.13;;;;;;;7.03;100.00;98401.72;5114514;27;20130;-78
2023/10/20 03:25:33;;;;;;;28.67;13.48;;;;;;;7.05;100.00;98404.25;5097582;27;20808;-78
2023/10/20 03:28:20;;;;;;;21.40;11.68;;;;;;;6.93;100.00;98401.13;5105585;27;20034;-78
2023/10/20 03:31:07;;;;;;;29.42;13.05;;;;;;;6.98;100.00;98394.97;5100960;27;20047;-77
2023/10/20 03:33:53;;;;;;;26.08;12.75;;;;;;;7.05;100.00;98388.66;5094785;27;20121;-79
2023/10/20 03:36:40;;;;;;;22.73;12.60;;;;;;;7.09;100.00;98377.25;5097175;27;20103;-78
2023/10/20 03:39:27;;;;;;;28.38;12.73;;;;;;;6.92;100.00;98383.84;5116326;27;20138;-79
2023/10/20 03:42:14;;;;;;;28.63;12.50;;;;;;;6.94;100.00;98376.00;5109294;27;20037;-80
2023/10/20 03:45:08;;;;;;;20.50;12.98;;;;;;;7.02;100.00;98376.59;5110265;27;20158;-81
2023/10/20 03:47:55;;;;;;;25.27;13.60;;;;;;;6.92;100.00;98364.75;5096565;27;20050;-79
2023/10/20 03:50:44;;;;;;;25.67;13.85;;;;;;;6.94;100.00;98361.22;5099454;27;20047;-78
2023/10/20 03:53:41;;;;;;;30.85;14.20;;;;;;;6.95;100.00;98362.94;5103702;27;20035;-76
2023/10/20 03:56:27;;;;;;;24.25;13.35;;;;;;;6.87;100.00;98364.94;5099390;27;20048;-77
2023/10/20 03:59:15;;;;;;;29.30;12.27;;;;;;;6.89;100.00;98350.09;5120992;27;20039;-78
2023/10/20 04:02:02;;;;;;;28.25;13.88;;;;;;;6.93;100.00;98343.91;5117708;27;20043;-79
2023/10/20 04:04:48;;;;;;;23.42;12.35;;;;;;;6.95;100.00;98347.31;5098459;27;20047;-78
2023/10/20 04:07:35;;;;;;;32.58;13.45;;;;;;;6.92;100.00;98342.22;5117783;27;20043;-80
2023/10/20 04:10:23;;;;;;;31.80;15.32;;;;;;;6.91;100.00;98335.31;5107942;27;20543;-79
2023/10/20 04:13:12;;;;;;;31.27;12.95;;;;;;;6.89;100.00;98357.06;5120030;27;20134;-79
2023/10/20 04:15:59;;;;;;;27.98;13.18;;;;;;;6.92;100.00;98363.03;5103352;27;20050;-79
2023/10/20 04:18:46;;;;;;;31.95;14.00;;;;;;;6.85;100.00;98345.91;5119540;27;20172;-79
2023/10/20 04:21:35;;;;;;;27.83;13.65;;;;;;;6.77;100.00;98329.69;5107678;27;20039;-79
2023/10/20 04:24:22;;;;;;;29.52;13.43;;;;;;;6.66;100.00;98311.81;5111336;27;20807;-80
2023/10/20 04:27:21;;;;;;;24.65;12.50;;;;;;;6.72;100.00;98301.22;5097588;27;20050;-78
2023/10/20 04:52:04;;;;;;;29.67;14.23;;;;;;;6.56;100.00;98256.66;5073627;27;20049;-80
2023/10/20 04:54:51;;;;;;;25.13;13.00;;;;;;;6.57;100.00;98266.16;5105643;27;20551;-79
2023/10/20 04:57:50;;;;;;;25.63;13.35;;;;;;;6.51;100.00;98268.13;5102428;27;20066;-78
2023/10/20 05:00:37;;;;;;;24.98;13.02;;;;;;;6.50;100.00;98274.19;5102773;27;20099;-77
2023/10/20 05:03:31;;;;;;;26.77;12.77;;;;;;;6.56;100.00;98277.47;5115222;27;20745;-77
2023/10/20 05:06:22;;;;;;;24.70;12.45;;;;;;;6.40;100.00;98276.22;5105422;27;21193;-78
2023/10/20 05:09:13;;;;;;;24.00;13.63;;;;;;;6.49;100.00;98260.34;5099022;27;20062;-77
2023/10/20 05:12:00;;;;;;;23.05;12.90;;;;;;;6.50;100.00;98256.84;5096167;27;20060;-78
2023/10/20 05:14:49;;;;;;;18.60;12.40;;;;;;;6.50;100.00;98271.59;5093131;27;20043;-78
2023/10/20 05:17:36;;;;;;;24.13;12.52;;;;;;;6.59;100.00;98276.50;5094622;27;20067;-77
2023/10/20 05:20:24;;;;;;;20.30;12.27;;;;;;;6.51;100.00;98258.56;5096042;27;20051;-78
2023/10/20 05:23:11;;;;;;;28.60;13.90;;;;;;;6.52;100.00;98255.06;5094972;27;20036;-78
2023/10/20 05:26:00;;;;;;;31.38;13.48;;;;;;;6.48;100.00;98250.88;5094750;27;20550;-77
2023/10/20 05:28:46;;;;;;;21.85;12.73;;;;;;;6.46;100.00;98242.25;5095372;27;20667;-76
2023/10/20 05:31:34;;;;;;;21.98;12.15;;;;;;;6.46;100.00;98216.25;5092779;27;20486;-78
2023/10/20 05:34:20;;;;;;;23.77;11.73;;;;;;;6.49;100.00;98221.34;5093369;27;20139;-78
2023/10/20 05:37:07;;;;;;;21.42;12.35;;;;;;;6.58;100.00;98222.81;5098977;27;20044;-77
2023/10/20 05:39:54;;;;;;;22.33;13.60;;;;;;;6.57;100.00;98231.50;5093713;27;20056;-79
2023/10/20 05:42:41;;;;;;;18.27;12.07;;;;;;;6.53;100.00;98227.31;5097295;27;20086;-80
2023/10/20 05:45:32;;;;;;;17.05;10.52;;;;;;;6.42;100.00;98222.47;5101417;27;20333;-76
2023/10/20 05:48:19;;;;;;;16.55;10.32;;;;;;;6.44;100.00;98213.72;5103833;27;20351;-79
2023/10/20 05:51:06;;;;;;;17.50;11.45;;;;;;;6.44;100.00;98231.03;5094698;27;20070;-75
2023/10/20 05:53:53;;;;;;;17.65;11.48;;;;;;;6.41;100.00;98238.94;5095065;27;20058;-79
2023/10/20 05:56:40;;;;;;;17.50;10.23;;;;;;;6.47;100.00;98249.16;5092730;27;20043;-78
2023/10/20 05:59:26;;;;;;;15.65;10.20;;;;;;;6.48;100.00;98232.66;5090340;27;20308;-78
2023/10/20 06:02:13;;;;;;;15.77;10.70;;;;;;;6.47;100.00;98233.56;5094357;27;20292;-77
2023/10/20 06:05:00;;;;;;;16.83;10.13;;;;;;;6.51;100.00;98234.31;5091905;27;20040;-78
2023/10/20 06:07:48;;;;;;;18.83;9.18;;;;;;;6.55;100.00;98223.75;5093441;27;20116;-78
2023/10/20 06:10:37;;;;;;;17.08;10.32;;;;;;;6.52;100.00;98207.41;5094467;27;20062;-79
2023/10/20 06:13:24;;;;;;;18.70;10.70;;;;;;;6.51;100.00;98195.34;5093705;27;20047;-77
2023/10/20 06:16:11;;;;;;;13.95;9.40;;;;;;;6.49;100.00;98197.97;5090393;27;20708;-77
2023/10/20 06:18:58;;;;;;;24.02;7.72;;;;;;;6.43;100.00;98180.00;5092111;27;20562;-79
2023/10/20 06:21:46;;;;;;;10.35;8.13;;;;;;;6.41;100.00;98190.44;5097643;27;20036;-76
2023/10/20 06:24:33;;;;;;;12.05;7.50;;;;;;;6.44;100.00;98182.53;5093012;27;20514;-79
2023/10/20 06:27:20;;;;;;;12.68;7.78;;;;;;;6.47;100.00;98191.97;5096459;27;20478;-76
2023/10/20 06:30:14;;;;;;;12.63;7.35;;;;;;;6.49;100.00;98184.97;5091659;27;20051;-76
2023/10/20 06:33:16;;;;;;;11.43;8.75;;;;;;;6.49;100.00;98187.56;5088486;27;20059;-77
2023/10/20 06:36:10;;;;;;;12.93;7.55;;;;;;;6.46;100.00;98159.09;5090623;28;20043;-76
2023/10/20 06:38:57;;;;;;;10.13;7.40;;;;;;;6.44;100.00;98143.56;5092568;27;20188;-76
2023/10/20 06:41:44;;;;;;;11.68;8.20;;;;;;;6.50;100.00;98145.09;5093482;27;20148;-78
2023/10/20 06:44:32;;;;;;;13.15;7.60;;;;;;;6.52;100.00;98138.09;5096726;27;20052;-76
2023/10/20 06:47:21;;;;;;;11.32;7.75;;;;;;;6.54;100.00;98157.06;5098775;27;20043;-78
2023/10/20 06:50:10;;;;;;;11.70;7.63;;;;;;;6.50;100.00;98131.25;5102563;27;20585;-76
2023/10/20 06:52:57;;;;;;;10.25;7.88;;;;;;;6.57;100.00;98135.34;5089591;27;20445;-76
2023/10/20 06:55:48;;;;;;;10.15;7.53;;;;;;;6.56;100.00;98120.66;5087848;27;20427;-77
2023/10/20 06:58:35;;;;;;;9.02;7.05;;;;;;;6.54;100.00;98128.50;5092999;27;20047;-78
2023/10/20 07:01:22;;;;;;;9.85;6.47;;;;;;;6.48;100.00;98128.72;5088170;27;20055;-77
2023/10/20 07:04:09;;;;;;;10.00;6.97;;;;;;;6.47;100.00;98132.22;5093994;27;20054;-78
2023/10/20 07:06:56;;;;;;;7.80;6.25;;;;;;;6.44;100.00;98122.75;5088506;28;20050;-79
2023/10/20 07:09:44;;;;;;;8.23;5.70;;;;;;;6.40;100.00;98110.78;5091931;27;20177;-76
2023/10/20 07:12:31;;;;;;;9.20;6.03;;;;;;;6.43;100.00;98117.63;5093021;27;20864;-79
2023/10/20 07:15:18;;;;;;;7.70;6.68;;;;;;;6.44;100.00;98121.88;5088360;27;20090;-77
2023/10/20 07:18:05;;;;;;;7.75;5.85;;;;;;;6.44;100.00;98130.56;5094378;28;20059;-78
2023/10/20 07:20:55;;;;;;;10.00;5.60;;;;;;;6.41;100.00;98125.47;5088571;27;20054;-78
2023/10/20 07:23:42;;;;;;;6.80;5.53;;;;;;;6.39;100.00;98129.03;5098830;27;20126;-77
2023/10/20 07:26:30;;;;;;;7.75;5.50;;;;;;;6.37;100.00;98130.81;5090095;28;20039;-77
2023/10/20 07:29:17;;;;;;;7.38;6.10;;;;;;;6.40;100.00;98121.16;5089677;28;20055;-78
2023/10/20 07:32:04;;;;;;;6.57;5.07;;;;;;;6.34;100.00;98115.31;5091859;28;20591;-75
2023/10/20 07:34:51;;;;;;;10.38;5.25;;;;;;;6.38;100.00;98119.53;5094380;27;20571;-78
2023/10/20 07:37:39;;;;;;;6.88;4.65;;;;;;;6.38;100.00;98112.56;5097358;28;20048;-78
2023/10/20 07:40:26;;;;;;;6.50;4.22;;;;;;;6.39;100.00;98116.03;5115621;27;20050;-76
2023/10/20 07:43:13;;;;;;;6.05;4.30;;;;;;;6.36;100.00;98110.91;5098734;28;20684;-78
2023/10/20 07:46:00;;;;;;;4.78;3.83;;;;;;;6.38;100.00;98103.94;5094973;28;20036;-77
2023/10/20 07:48:47;;;;;;;4.78;3.72;;;;;;;6.36;100.00;98101.38;5094434;28;20047;-76
2023/10/20 07:51:34;;;;;;;4.60;3.47;;;;;;;6.37;100.00;98094.44;5091974;28;20183;-77
2023/10/20 07:54:21;;;;;;;5.53;3.05;;;;;;;6.39;100.00;98095.25;5094590;28;20123;-76
2023/10/20 07:57:09;;;;;;;3.22;3.03;;;;;;;-146.61;100.00;58846.50;5096738;28;20043;-78
2023/10/20 07:59:56;;;;;;;3.28;2.70;;;;;;;-146.61;100.00;58846.50;5092258;28;20039;-78
2023/10/20 08:02:42;;;;;;;2.83;2.47;;;;;;;-146.61;100.00;58846.50;5095109;28;20071;-77
2023/10/20 08:05:30;;;;;;;4.07;3.13;;;;;;;-146.61;100.00;58846.50;5087138;28;20051;-78
2023/10/20 08:08:17;;;;;;;3.72;2.80;;;;;;;-146.61;100.00;58846.50;5095481;28;20039;-78
2023/10/20 08:11:07;;;;;;;3.92;2.38;;;;;;;-146.61;100.00;58846.50;5107071;27;20078;-75
2023/10/20 08:13:55;;;;;;;3.22;2.40;;;;;;;-146.61;100.00;58846.50;5113181;27;20179;-78
2023/10/20 08:16:42;;;;;;;4.07;2.10;;;;;;;-146.61;100.00;58846.50;5111149;27;20076;-79
2023/10/20 08:19:28;;;;;;;3.22;2.67;;;;;;;-146.61;100.00;58846.50;5114146;27;20051;-76
2023/10/20 08:22:15;;;;;;;2.72;2.20;;;;;;;-146.61;100.00;58846.50;5100739;27;20039;-78
2023/10/20 08:25:02;;;;;;;2.42;1.90;;;;;;;-146.61;100.00;58846.50;5112420;27;20067;-78
2023/10/20 08:27:49;;;;;;;2.20;1.65;;;;;;;-146.61;100.00;58846.50;5108476;27;20223;-76
2023/10/20 08:30:36;;;;;;;3.50;2.15;;;;;;;-146.61;100.00;58846.50;5113467;27;20039;-79
2023/10/20 08:33:23;;;;;;;3.20;1.80;;;;;;;-146.61;100.00;58846.50;5093935;27;20059;-78
2023/10/20 08:36:14;;;;;;;2.08;1.98;;;;;;;-146.61;100.00;58846.50;5108476;27;20046;-77
2023/10/20 08:39:13;;;;;;;1.65;1.55;;;;;;;-146.61;100.00;58846.50;5110515;27;20143;-81
2023/10/20 08:42:00;;;;;;;2.95;1.30;;;;;;;-146.61;100.00;58846.50;5116398;27;20098;-77
2023/10/20 08:44:48;;;;;;;2.28;1.13;;;;;;;-146.61;100.00;58846.50;5119859;27;20035;-76
2023/10/20 08:47:35;;;;;;;1.35;1.25;;;;;;;-146.61;100.00;58846.50;5115075;27;20126;-77
2023/10/20 08:50:22;;;;;;;1.65;1.23;;;;;;;-146.61;100.00;58846.50;5117980;27;20047;-77
2023/10/20 08:53:14;;;;;;;1.35;1.05;;;;;;;-146.61;100.00;58846.50;5118180;27;20068;-77
2023/10/20 08:56:01;;;;;;;2.90;2.00;;;;;;;-146.61;100.00;58846.50;5111381;27;20565;-78
2023/10/20 08:58:48;;;;;;;3.22;1.40;;;;;;;-146.61;100.00;58846.50;5120855;27;20050;-78
2023/10/20 09:01:34;;;;;;;2.35;1.92;;;;;;;-146.61;100.00;58846.50;5123336;27;20506;-78
2023/10/20 09:04:22;;;;;;;1.30;1.20;;;;;;;-146.61;100.00;58846.50;5121406;27;20640;-76
2023/10/20 09:07:13;;;;;;;1.13;1.08;;;;;;;-146.61;100.00;58846.50;5125230;27;20051;-78
2023/10/20 09:10:01;;;;;;;2.15;1.20;;;;;;;-146.61;100.00;58846.50;5119494;27;20149;-78
2023/10/20 09:12:48;;;;;;;1.45;1.30;;;;;;;-146.61;100.00;58846.50;5115367;27;20047;-76
2023/10/20 09:15:35;;;;;;;1.98;1.20;;;;;;;-146.61;100.00;58846.50;5116074;27;20077;-78
2023/10/20 09:18:22;;;;;;;1.17;0.95;;;;;;;-146.61;100.00;58846.50;5118378;27;20051;-77
2023/10/20 09:21:09;;;;;;;1.50;1.10;;;;;;;-146.61;100.00;58846.50;5118232;27;20059;-77
2023/10/20 09:24:02;;;;;;;2.25;0.98;;;;;;;-146.61;100.00;58846.50;5116144;27;20040;-75
2023/10/20 09:26:49;;;;;;;2.45;1.20;;;;;;;-146.61;100.00;58846.50;5118262;27;20055;-80
2023/10/20 09:29:37;;;;;;;1.17;0.98;;;;;;;-146.61;100.00;58846.50;5118737;27;21235;-79
2023/10/20 09:32:24;;;;;;;2.08;1.00;;;;;;;-146.61;100.00;58846.50;5122587;27;20099;-77
2023/10/20 09:35:11;;;;;;;3.15;1.20;;;;;;;-146.61;100.00;58846.50;5122574;27;20754;-79
2023/10/20 09:38:05;;;;;;;0.73;0.73;;;;;;;-146.61;100.00;58846.50;5123576;27;20042;-79
2023/10/20 09:41:05;;;;;;;1.92;0.80;;;;;;;-146.61;100.00;58846.50;5118790;27;20054;-77
2023/10/20 09:44:05;;;;;;;1.00;0.90;;;;;;;-146.61;100.00;58846.50;5118205;27;20035;-78
2023/10/20 09:46:58;;;;;;;2.22;1.02;;;;;;;-146.61;100.00;58846.50;5113014;27;20142;-79
2023/10/20 09:49:48;;;;;;;1.38;1.27;;;;;;;-146.61;100.00;58846.50;5115300;27;20042;-77
2023/10/20 09:52:35;;;;;;;0.90;0.90;;;;;;;-146.61;100.00;58846.50;5121928;27;20051;-79
2023/10/20 09:55:22;;;;;;;1.33;0.95;;;;;;;-146.61;100.00;58846.50;5118000;27;20039;-80
2023/10/20 09:58:10;;;;;;;2.35;1.67;;;;;;;-146.61;100.00;58846.50;5122082;27;20054;-79
2023/10/20 10:00:57;;;;;;;0.70;0.70;;;;;;;-146.61;100.00;58846.50;5116994;27;20051;-77
2023/10/20 10:04:03;;;;;;;1.48;0.82;;;;;;;-146.61;100.00;58846.50;5115616;27;20095;-78
2023/10/20 10:06:50;;;;;;;1.20;1.10;;;;;;;-146.61;100.00;58846.50;5116571;27;20177;-78
2023/10/20 10:09:38;;;;;;;1.23;0.80;;;;;;;-146.61;100.00;58846.50;5114351;27;20776;-79
2023/10/20 10:12:29;;;;;;;2.15;1.23;;;;;;;-146.61;100.00;58846.50;5114405;27;20663;-78
2023/10/20 10:15:16;;;;;;;1.30;0.82;;;;;;;-146.61;100.00;58846.50;5117767;27;20047;-79
2023/10/20 10:18:09;;;;;;;1.58;0.82;;;;;;;-146.61;100.00;58846.50;5114601;27;20050;-78
2023/10/20 10:21:03;;;;;;;0.77;0.73;;;;;;;-146.61;100.00;58846.50;5115644;27;20605;-79
2023/10/20 10:24:20;;;;;;;2.92;0.80;;;;;;;-146.61;100.00;58846.50;5114355;27;20132;-79
2023/10/20 10:27:13;;;;;;;2.25;0.82;;;;;;;-146.61;100.00;58846.50;5117669;27;20047;-78
2023/10/20 10:30:05;;;;;;;1.48;1.13;;;;;;;-146.61;100.00;58846.50;5117905;27;20081;-81
2023/10/20 10:32:52;;;;;;;0.95;0.95;;;;;;;-146.61;100.00;58846.50;5113526;27;20142;-76
2023/10/20 10:35:40;;;;;;;1.75;0.93;;;;;;;-146.61;100.00;58846.50;5114531;27;20082;-80
2023/10/20 10:38:29;;;;;;;1.88;0.80;;;;;;;-146.61;100.00;58846.50;5108625;27;20039;-78
2023/10/20 10:41:24;;;;;;;1.08;0.90;;;;;;;-146.61;100.00;58846.50;5114645;27;20638;-77
2023/10/20 10:44:14;;;;;;;0.88;0.63;;;;;;;-146.61;100.00;58846.50;5114121;27;20051;-76
2023/10/20 10:47:03;;;;;;;1.20;1.10;;;;;;;-146.61;100.00;58846.50;5114632;27;20711;-79
2023/10/20 10:49:50;;;;;;;2.85;1.02;;;;;;;-146.61;100.00;58846.50;5115268;27;20568;-80
2023/10/20 10:52:37;;;;;;;3.10;1.13;;;;;;;-146.61;100.00;58846.50;5110449;27;20073;-80
2023/10/20 10:55:24;;;;;;;1.05;0.95;;;;;;;-146.61;100.00;58846.50;5114820;27;20047;-80
2023/10/20 10:58:15;;;;;;;2.53;1.02;;;;;;;-146.61;100.00;58846.50;5111141;27;20047;-78
2023/10/20 11:01:02;;;;;;;4.47;1.00;;;;;;;-146.61;100.00;58846.50;5115585;27;20151;-80
2023/10/20 11:03:49;;;;;;;0.65;0.60;;;;;;;-146.61;100.00;58846.50;5118966;27;20036;-77
2023/10/20 11:06:38;;;;;;;0.80;0.80;;;;;;;-146.61;100.00;58846.50;5115610;27;20039;-79
2023/10/20 11:09:28;;;;;;;0.70;0.70;;;;;;;-146.61;100.00;58846.50;5108591;27;20514;-76
2023/10/20 11:12:18;;;;;;;0.40;0.30;;;;;;;-146.61;100.00;58846.50;5114837;27;20039;-80
2023/10/20 11:15:05;;;;;;;0.60;0.60;;;;;;;-146.61;100.00;58846.50;5116025;27;20100;-76
2023/10/20 11:17:52;;;;;;;0.80;0.70;;;;;;;-146.61;100.00;58846.50;5121717;27;20601;-78
2023/10/20 11:20:41;;;;;;;2.03;0.70;;;;;;;-146.61;100.00;58846.50;5116315;27;20673;-78
2023/10/20 11:23:32;;;;;;;0.82;0.82;;;;;;;-146.61;100.00;58846.50;5121215;27;20545;-78
2023/10/20 11:26:20;;;;;;;0.70;0.70;;;;;;;-146.61;100.00;58846.50;5120371;27;20300;-79
2023/10/20 11:29:08;;;;;;;1.40;1.08;;;;;;;-146.61;100.00;58846.50;5116221;27;20047;-79
2023/10/20 11:31:57;;;;;;;0.95;0.70;;;;;;;-146.61;100.00;58846.50;5117106;27;20214;-80
2023/10/20 11:34:45;;;;;;;1.30;1.08;;;;;;;-146.61;100.00;58846.50;5118323;27;20039;-78
2023/10/20 11:37:32;;;;;;;0.93;0.80;;;;;;;-146.61;100.00;58846.50;5109667;27;20047;-76
2023/10/20 11:40:19;;;;;;;0.80;0.80;;;;;;;-146.61;100.00;58846.50;5115729;27;20482;-78
2023/10/20 11:43:06;;;;;;;1.25;0.47;;;;;;;-146.61;100.00;58846.50;5117831;27;20099;-79
2023/10/20 11:45:53;;;;;;;0.35;0.35;;;;;;;-146.61;100.00;58846.50;5115911;27;20395;-78
2023/10/20 11:48:40;;;;;;;0.60;0.57;;;;;;;-146.61;100.00;58846.50;5120448;27;20054;-76
2023/10/20 11:51:27;;;;;;;0.70;0.57;;;;;;;-146.61;100.00;58846.50;5121890;27;20055;-80
2023/10/20 11:54:14;;;;;;;0.45;0.40;;;;;;;-146.61;100.00;58846.50;5116799;27;20206;-78
2023/10/20 11:57:01;;;;;;;0.77;0.50;;;;;;;-146.61;100.00;58846.50;5117541;27;20141;-78
2023/10/20 11:59:48;;;;;;;0.65;0.60;;;;;;;-146.61;100.00;58846.50;5112122;27;20051;-78
2023/10/20 12:02:35;;;;;;;0.95;0.52;;;;;;;-146.61;100.00;58846.50;5125533;27;20059;-81
2023/10/20 12:05:22;;;;;;;1.08;0.70;;;;;;;-146.61;100.00;58846.50;5112332;27;20289;-79
2023/10/20 12:08:09;;;;;;;0.40;0.40;;;;;;;-146.61;100.00;58846.50;5118004;27;20427;-79
2023/10/20 12:10:56;;;;;;;0.93;0.40;;;;;;;-146.61;100.00;58846.50;5115212;27;20550;-78
2023/10/20 12:13:48;;;;;;;5.78;0.73;;;;;;;-146.61;100.00;58846.50;5111912;27;20047;-79
2023/10/20 12:16:34;;;;;;;0.50;0.50;;;;;;;-146.61;100.00;58846.50;5120759;27;20046;-76
2023/10/20 12:19:21;;;;;;;1.30;0.60;;;;;;;-146.61;100.00;58846.50;5115180;27;20066;-79
2023/10/20 12:22:09;;;;;;;0.57;0.50;;;;;;;-146.61;100.00;58846.50;5118040;27;20405;-78
2023/10/20 12:24:56;;;;;;;1.33;1.23;;;;;;;-146.61;100.00;58846.50;5119245;27;20042;-79
2023/10/20 12:27:44;;;;;;;0.82;0.40;;;;;;;-146.61;100.00;58846.50;5116334;27;20149;-77
2023/10/20 12:30:32;;;;;;;0.50;0.50;;;;;;;-146.61;100.00;58846.50;5117704;27;20345;-77
2023/10/20 12:33:18;;;;;;;0.52;0.50;;;;;;;-146.61;100.00;58846.50;5120837;27;20642;-78
2023/10/20 12:36:06;;;;;;;1.60;0.60;;;;;;;-146.61;100.00;58846.50;5115806;27;20070;-77
2023/10/20 12:38:52;;;;;;;0.82;0.70;;;;;;;-146.61;100.00;58846.50;5119613;27;20129;-78
2023/10/20 12:41:39;;;;;;;0.50;0.50;;;;;;;-146.61;100.00;58846.50;5120585;27;20051;-78
2023/10/20 12:44:29;;;;;;;1.27;0.43;;;;;;;-146.61;100.00;58846.50;5124683;27;20070;-76
2023/10/20 12:47:16;;;;;;;0.45;0.45;;;;;;;-146.61;100.00;58846.50;5121746;27;20051;-79
2023/10/20 12:50:03;;;;;;;0.75;0.50;;;;;;;-146.61;100.00;58846.50;5119919;27;20113;-78
2023/10/20 12:52:50;;;;;;;0.38;0.38;;;;;;;-146.61;100.00;58846.50;5125636;27;20054;-80
2023/10/20 12:55:37;;;;;;;1.23;0.50;;;;;;;-146.61;100.00;58846.50;5119269;27;20051;-77
2023/10/20 12:58:24;;;;;;;0.68;0.50;;;;;;;-146.61;100.00;58846.50;5121125;27;20750;-77
2023/10/20 13:01:10;;;;;;;0.30;0.20;;;;;;;-146.61;100.00;58846.50;5118301;27;20057;-79
2023/10/20 13:03:57;;;;;;;0.43;0.40;;;;;;;-146.61;100.00;58846.50;5117817;27;20043;-76
2023/10/20 13:06:44;;;;;;;0.38;0.38;;;;;;;-146.61;100.00;58846.50;5120461;27;20054;-78
2023/10/20 13:09:30;;;;;;;0.50;0.50;;;;;;;-146.61;100.00;58846.50;5118761;27;20054;-81
2023/10/20 13:12:17;;;;;;;0.20;0.20;;;;;;;-146.61;100.00;58846.50;5115051;27;20058;-78